Ban Ao Lung Kong, Thailand

10:10 PM ICT on December 08, 2016 (GMT +0700)
Krabi | | Change Station

Elev 82 ft 8.10 °N, 98.99 °E | Updated 10 minutes ago

Mostly Cloudy
Mostly Cloudy
77 °F
Feels Like 77 °F
N
5
Wind Variable Wind from NE

Today
High -- | Low -- °F
--% Chance of Precip.
Yesterday
High -- | Low -- °F
Precip. -- in
Pressure 29.83 in
Visibility 6.2 miles
Clouds Few 2000 ft
Dew Point 73 °F
Humidity 89%
Rainfall 0.00 in
Snow Depth Not available.
6:23 AM 6:04 PM
Waxing Gibbous, 64% visible
METAR VTSG 081500Z 04004KT 360V080 9999 FEW020 25/23 Q1010
Pressure 29.83 in
Visibility 6.2 miles
Clouds Few 2000 ft
Dew Point 73 °F
Humidity 89%
Rainfall 0.00 in
Snow Depth Not available.
6:23 AM 6:04 PM
Waxing Gibbous, 64% visible
METAR VTSG 081500Z 04004KT 360V080 9999 FEW020 25/23 Q1010

10-Day Weather Forecast

No radar image for this location.
×

Almanac

Astronomy

Dec. 08, 2016 Rise Set
Actual Time
Civil Twilight
Nautical Twilight
Astronomical Twilight
Moon
Length of Visible Light
Length of Day
Tomorrow will be .
, % of the Moon is Illuminated

Today's Extremes

Country Highs Country Lows

Community

WunderPhotos

Upload Photos

1,956,268 photos uploaded!

WunderBlog® & News

Nearby

Air Quality

  Air Quality AQ Index Pollutant
Not available.

Snow Depth

Station Depth Elevation

Earthquake Activity

City Distance Mag. Time & Date
Minimum magnitude displayed is 2.5.

Coastal Water Temperatures

Place Temperature

Stations

Nearby Weather Stations

Station Location Temp. Windchill Dew Point Humidity Wind Precip. Elev Updated Type